AirNav   Everest Fuels
 
 361 users online  

PS71 St Mary Hospital Heliport
Langhorne, Pennsylvania, USA

GOING TO LANGHORNE?


FAA INFORMATION EFFECTIVE 21 MAY 2020

Location

FAA Identifier: PS71
Lat/Long: 40-12-08.0600N 074-55-21.7700W
40-12.134333N 074-55.362833W
40.2022389,-74.9227139
(estimated)
Elevation: 140 ft. / 43 m (estimated)
Variation: 11W (1985)
From city: 1 mile N of LANGHORNE, PA
Time zone: UTC -4 (UTC -5 during Standard Time)
Zip code: 19047

Heliport Operations

Heliport use: Private use, MEDICAL USE.
Activation date: 04/1986
Control tower: no
ARTCC: NEW YORK CENTER
FSS: WILLIAMSPORT FLIGHT SERVICE STATION
Attendance: CONTINUOUS
Wind indicator: yes
Segmented circle: no

Heliport Communications

WX ASOS at TTN (7 nm NE): 126.775 (609-538-8690)
WX ASOS at PNE (8 nm SW): 121.15 (215-677-0146)
WX ASOS at DYL (12 nm NW): 118.875 (215-345-0392)
WX ASOS at VAY (16 nm S): 119.325 (609-267-1176)
WX AWOS-3 at LOM (16 nm W): 118.925 (215-646-1068)

Nearby radio navigation aids

VOR radial/distance  VOR name  Freq  Var
ARDr203/3.1YARDLEY VOR/DME108.2010W
GXUr320/18.9MC GUIRE VORTAC110.6012W
RBVr280/19.6ROBBINSVILLE VORTAC113.8010W
SBJr210/24.3SOLBERG VOR/DME112.9010W
PTWr101/29.2POTTSTOWN VORTAC116.5009W
CYNr326/32.3COYLE VORTAC113.4010W
COLr270/35.5COLTS NECK VOR/DME115.4011W
BWZr198/36.1BROADWAY VOR/DME114.2011W
OODr037/38.2WOODSTOWN VORTAC112.8010W
MXEr073/38.4MODENA VORTAC113.2009W
FJCr152/39.7ALLENTOWN VORTAC117.5010W
VCNr013/39.9CEDAR LAKE VOR/DME115.2010W

 
NDB name  Hdg/Dist  Freq  Var  ID
AMBLER087/17.227512WING .. -. --.
LAKEHURST300/28.539611WNEL -. . .-..
CHATHAM228/39.425413WCAT -.-. .- -

Heliport Services

Runway Information

Helipad H1

Dimensions: 45 x 45 ft. / 14 x 14 m
Surface: concrete
Latitude: 40-12.134333N
Longitude: 074-55.362833W
Elevation: 140.0 ft.
Traffic pattern: leftleft

Heliport Ownership and Management from official FAA records

Ownership: Privately-owned
Owner: SAINT MARY HOSPITAL
LANGHORNE-NEWTOWN ROAD
LANGHORNE, PA 19047
Phone 215-750-2035
Manager: H. DALE MC ELHONE
376 WHEATSHEAF LANE
LONGHORNE, PA 19047
Phone 215-750-7961

Additional Remarks

A52-H1 HOSPITAL BLDGS WEST OF PAD.
FOR CD CTC PHILADELPHIA APCH AT 800-354-9884.

Instrument Procedures

There are no published instrument procedures at PS71.

Some nearby airports with instrument procedures:

KTTN - Trenton Mercer Airport (7 nm NE)
KPNE - Northeast Philadelphia Airport (8 nm SW)
KDYL - Doylestown Airport (12 nm NW)
N87 - Trenton-Robbinsville Airport (15 nm E)
KVAY - South Jersey Regional Airport (16 nm S)
KLOM - Wings Field Airport (16 nm W)
39N - Princeton Airport (17 nm NE)
N14 - Flying W Airport (17 nm S)
KWRI - McGuire Field (Joint Base Mc Guire Dix Lakehurst) Airport (19 nm SE)
 
Loc | Ops | Rwys | IFR | FBO | Links
Com | Nav | Svcs | Stats | Notes
Area around PS71 (St Mary Hospital Heliport)
 
Road maps at: MapQuest Bing Google
 
Aerial photo
No photo
 
Sectional chart

 
Airport distance calculator
Flying to St Mary Hospital Heliport? Find the distance to fly.

From to PS71

Sunrise and sunset
Times for 03-Jun-2020
 Local
(UTC-4)
 Zulu
(UTC)
Morning civil twilight05:0009:00
Sunrise05:3209:32
Sunset20:2400:24
Evening civil twilight20:5600:56

Current date and time
Zulu (UTC)  03-Jun-2020 08:23:26
Local (UTC-4)  03-Jun-2020 04:23:26
 
METAR
KTTN 
7nm NE 
ASOS 133.70 609-538-8690
030753Z AUTO 22003KT 10SM FEW065 16/11 A2971 RMK AO2 LTG DSNT NE SLP053 T01560106
KPNE 
8nm SW 
030754Z AUTO 00000KT 10SM FEW065 FEW075 18/12 A2973 RMK AO2 SLP066 T01830122
KDYL 
12nm NW 
030754Z AUTO 00000KT 10SM FEW060 17/11 A2971 RMK AO2 SLP057 T01670106
KLOM 
16nm W 
030755Z AUTO 01003KT 10SM CLR 15/14 A2973 RMK AO2 T01550138
KVAY 
17nm S 
ASOS 119.325 609-267-1176
030754Z AUTO 18003KT 10SM SCT070 16/12 A2972 RMK AO2 SLP062 T01610117
KWRI 
19nm SE 
030756Z AUTO 16003KT 10SM FEW065 SCT230 16/12 A2971 RMK AO2 SLP060 T01620118 $
TAF
KTTN 
7nm NE 
030521Z 0306/0406 VRB03KT P6SM VCTS SCT070CB BKN100 FM030900 27010KT P6SM BKN150 FM031500 27012G20KT P6SM SCT050 BKN100 FM031700 28010G18KT 6SM -SHRA VCTS BKN050CB TEMPO 0318/0321 VRB20G30KT 3SM -TSRA BKN040CB FM032300 29008KT P6SM BKN090
KPNE 
8nm SW 
030521Z 0306/0406 25008KT P6SM BKN080 FM031500 26012G22KT P6SM SCT050 BKN100 FM031800 28012G20KT 6SM -SHRA VCTS BKN050CB TEMPO 0319/0322 VRB20G30KT 3SM -TSRA BKN040CB FM040100 29008KT P6SM BKN090
KWRI 
19nm SE 
030200Z 0302/0408 22006KT 9999 SCT070 QNH2966INS BECMG 0312/0313 25010G18KT 9999 FEW050 SCT140 QNH2963INS BECMG 0315/0316 25015G25KT 9999 SCT035 BKN140 QNH2957INS BECMG 0319/0320 27015G28KT 8000 -TSRA BKN045CB QNH2956INS TEMPO 0321/0324 27025G45KT 6000 -TSRA BKN040CB BECMG 0400/0401 28012G20KT 9000 -SHRA SCT045 QNH2959INS BECMG 0405/0406 29006KT 9000 -RA FEW045 QNH2970INS TX32/0318Z TN16/0307Z
NOTAMs
Click for the latest NOTAMs
NOTAMs are issued by the DoD/FAA and will open in a separate window not controlled by AirNav.

 

 
 

Would you like to see your business listed on this page?

 If your business provides an interesting product or service to pilots, flight crews, aircraft, or users of the St Mary Hospital Heliport, you should consider listing it here.  To start the listing process, click on the button below
 
Add a business
 

Other Pages about St Mary Hospital Heliport

Update a link
 
Copyright © AirNav, LLC. All rights reserved. Privacy Policy  Contact